• Join FlightAware (Why Join?)
  • Login
  • US Flag 
10:31PM EDT


 

Airport Tracker/Info


-or-


 

Live Flight TrackerFlight Track Log ✈ UAL1177 ✈ 26-May-2013 ✈ KIAH - KMSY

Flight Track Log - Related Links

Times and Time Zones

All times are in EDT time to prevent confusion due to time zone crossing. See the UAL1177 flight status page for this flight to view local times or setup timezone preferences in your user account.

Time Position Orientation Groundspeed Altitude Reporting Facility
EDT Latitude Longitude Course Direction KTS MPH feet Rate Location/Type
02:25PM 29.9614 -95.3411 95° East 158 182 900  Level Houston Center
02:27PM 29.9061 -95.2636 129° Southeast 243 280 4,900 2,760 Climbing Houston Center
02:28PM 29.9325 -94.9537 102° East  Level FlightAware Approximate
02:28PM 29.8619 -95.1942 126° Southeast 281 323 8,000  Level Houston Center
02:29PM 29.9134 -94.8273 95° East  Level FlightAware Approximate
02:29PM 29.8419 -95.1053 105° East 301 346 11,100  Level Houston Center
02:30PM 29.9028 -94.6995 95° East  Level FlightAware Approximate
02:30PM 29.8447 -94.9947 88° East 341 392 13,900  Level Houston Center
02:31PM 29.8486 -94.8772 88° East 362 417 17,000 2,760 Climbing Houston Center
02:32PM 29.8514 -94.7581 88° East 370 426 19,600 2,340 Climbing Houston Center
02:33PM 29.8556 -94.6303 88° East 395 455 21,900 2,220 Climbing Houston Center
02:34PM 29.8592 -94.4989 88° East 409 471 24,200 2,340 Climbing Houston Center
02:35PM 29.8628 -94.3361 88° East 421 484 26,700 2,040 Climbing Houston Center
02:36PM 29.8592 -94.1953 92° East 434 499 28,400 1,620 Climbing Houston Center
02:37PM 29.8536 -94.0544 93° East 442 509 30,100 1,800 Climbing Houston Center
02:38PM 29.8683 -93.9117 83° East 451 519 32,200 1,380 Climbing Houston Center
02:39PM 29.8825 -93.7697 83° East 448 516 33,000 300 Climbing Houston Center
02:40PM 29.8967 -93.6297 83° East 445 512 32,900  Descending Houston Center
02:41PM 29.9128 -93.4606 84° East 444 511 33,000  Climbing Houston Center
02:42PM 29.9281 -93.3189 83° East 450 518 33,000  Level Houston Center
02:43PM 29.9425 -93.1794 83° East 445 512 33,000 -60 Level Houston Center
02:44PM 29.9572 -93.0386 83° East 445 512 32,900  Descending Houston Center
02:45PM 29.9714 -92.8969 83° East 444 511 33,000  Climbing Houston Center
02:46PM 29.9817 -92.7561 85° East 444 511 32,900 -60 Descending Houston Center
02:47PM 29.9961 -92.5872 84° East 445 512 32,900 -540 Level Houston Center
02:48PM 30.0069 -92.4464 85° East 443 510 31,900 -1,320 Descending Houston Center
02:49PM 30.0186 -92.3022 85° East 452 520 30,300 -2,580 Descending Houston Center
02:50PM 30.0303 -92.1539 85° East 463 533 26,700 -3,060 Descending Houston Center
02:51PM 30.0406 -92.0036 85° East 470 541 24,000 -2,580 Descending Houston Center
02:52PM 30.0517 -91.8611 85° East 450 518 21,500 -2,460 Descending Houston Center
02:53PM 30.0694 -91.7178 82° East 429 494 19,000 -1,740 Descending Houston Center
02:54PM 30.0917 -91.5928 78° East 402 463 18,000 -1,020 Descending Houston Center
02:55PM 30.1108 -91.4453 81° East 390 449 17,000 -1,020 Descending Houston Center
02:56PM 30.1114 -91.3244 90° East 377 434 16,000 -1,320 Descending Houston Center
02:58PM 30.1183 -91.1903 87° East 355 409 14,200 -1,680 Descending Houston Center
02:59PM 30.1300 -91.1014 81° East 346 398 12,600 -2,040 Descending Houston Center
03:00PM 30.1144 -90.9922 99° East 346 398 10,300 -1,800 Descending Houston Center
03:01PM 30.1008 -90.8981 99° East 304 350 9,000 -1,440 Descending Houston Center
03:02PM 30.0869 -90.8072 100° East 293 337 7,400 -1,860 Descending Houston Center
03:03PM 30.0808 -90.7006 94° East 285 328 5,200 -1,740 Descending Houston Center
03:04PM 30.0622 -90.6164 104° East 276 318 3,900 -960 Descending Houston Center
03:05PM 30.0464 -90.5342 103° East 271 312 3,300 -600 Descending Houston Center